Watauga Observed Data For Previous 48 Hours

Caption
Day and Hour Reservoir Elevation (behind dam)* Tailwater Elevation (below dam)* Average Hourly Discharge*
9/20/2018 2 AM EDT 1,956.24 1,648.95 0
9/20/2018 3 AM EDT 1,956.24 1,648.79 0
9/20/2018 4 AM EDT 1,956.24 1,648.59 0
9/20/2018 5 AM EDT 1,956.24 1,648.54 0
9/20/2018 6 AM EDT 1,956.25 1,648.21 0
9/20/2018 7 AM EDT 1,956.26 1,649.04 936
9/20/2018 8 AM EDT 1,956.26 1,648.94 0
9/20/2018 9 AM EDT 1,956.26 1,648.69 0
9/20/2018 10 AM EDT 1,956.28 1,648.46 0
9/20/2018 11 AM EDT 1,956.28 1,648.45 3
9/20/2018 12 PM EDT 1,956.28 1,649.81 1,262
9/20/2018 1 PM EDT 1,956.28 1,649.78 1,268
9/20/2018 2 PM EDT 1,956.28 1,651.61 2,178
9/20/2018 3 PM EDT 1,956.28 1,651.58 2,872
9/20/2018 4 PM EDT 1,956.26 1,651.64 2,871
9/20/2018 5 PM EDT 1,956.25 1,651.62 2,867
9/20/2018 6 PM EDT 1,956.24 1,651.60 2,859
9/20/2018 7 PM EDT 1,956.22 1,651.58 2,864
9/20/2018 8 PM EDT 1,956.21 1,650.27 1,496
9/20/2018 9 PM EDT 1,956.19 1,650.31 1,478
9/20/2018 10 PM EDT 1,956.19 1,650.31 1,474
9/20/2018 11 PM EDT 1,956.19 1,650.26 1,476
9/21/2018 12 AM EDT 1,956.18 1,649.82 1,252
9/21/2018 1 AM EDT 1,956.18 1,649.85 1,266
9/21/2018 2 AM EDT 1,956.16 1,649.06 617
9/21/2018 3 AM EDT 1,956.16 1,648.87 0
9/21/2018 4 AM EDT 1,956.16 1,648.63 0
9/21/2018 5 AM EDT 1,956.16 1,648.41 0
9/21/2018 6 AM EDT 1,956.16 1,648.21 0
9/21/2018 7 AM EDT 1,956.16 1,648.01 0
9/21/2018 8 AM EDT 1,956.16 1,647.80 0
9/21/2018 9 AM EDT 1,956.16 1,647.60 0
9/21/2018 10 AM EDT 1,956.16 1,647.42 0
9/21/2018 11 AM EDT 1,956.16 1,647.46 0
9/21/2018 12 PM EDT 1,956.16 1,649.86 1,265
9/21/2018 1 PM EDT 1,956.16 1,650.34 1,292
9/21/2018 2 PM EDT 1,956.16 1,651.66 2,849
9/21/2018 3 PM EDT 1,956.16 1,651.59 2,871
9/21/2018 4 PM EDT 1,956.16 1,651.68 2,874
9/21/2018 5 PM EDT 1,956.13 1,651.63 2,879
9/21/2018 6 PM EDT 1,956.10 1,651.63 2,863
9/21/2018 7 PM EDT 1,956.07 1,651.60 2,862
9/21/2018 8 PM EDT 1,956.05 1,649.81 1,327
9/21/2018 9 PM EDT 1,956.04 1,649.80 1,266
9/21/2018 10 PM EDT 1,956.04 1,649.82 1,270
9/21/2018 11 PM EDT 1,956.03 1,649.85 1,269
9/22/2018 12 AM EDT 1,956.01 1,648.89 682
9/22/2018 1 AM EDT 1,956.01 1,648.80 0
9/22/2018 2 AM EDT 1,956.01 1,648.58 0
9/22/2018 3 AM EDT 1,956.01 1,648.31 0
9/22/2018 4 AM EDT 1,956.01 1,648.07 0
9/22/2018 5 AM EDT 1,956.01 1,647.83 0
9/22/2018 6 AM EDT 1,956.03 1,647.58 0
9/22/2018 7 AM EDT 1,956.03 1,647.39 0
9/22/2018 8 AM EDT 1,956.03 1,647.22 0
9/22/2018 9 AM EDT 1,956.03 1,647.13 0
9/22/2018 10 AM EDT 1,956.03 1,647.11 0
9/22/2018 11 AM EDT 1,956.03 1,647.28 0

Elevations are in feet above sea level. Discharges are in cubic feet per second and are reported at the end of the hour.